Time;durP1;ratioP1;P1;durP2;ratioP2;P2;SDS_P1;SDS_P2;PMS_P1;PMS_P2;Temp;Humidity;BMP_temperature;BMP_pressure;BME280_temperature;BME280_humidity;BME280_pressure;Samples;Min_cycle;Max_cycle;Signal;HPM_P1;HPM_P2
2022/04/06 00:00:28;;;;;;;16.33;7.28;;;;;;;9.25;85.98;100361.81;5102037;28;20045;-67
2022/04/06 00:02:59;;;;;;;18.13;6.68;;;;;;;9.24;86.21;100358.28;5112809;28;20036;-66
2022/04/06 00:05:26;;;;;;;19.27;7.53;;;;;;;9.24;85.91;100360.91;5104529;28;20131;-67
2022/04/06 00:07:53;;;;;;;21.05;7.07;;;;;;;9.22;86.35;100361.88;5102458;28;20104;-66
2022/04/06 00:10:20;;;;;;;20.73;7.50;;;;;;;9.23;86.26;100359.19;5110414;28;20040;-66
2022/04/06 00:12:47;;;;;;;22.08;6.50;;;;;;;9.21;86.11;100355.75;5111532;28;20706;-67
2022/04/06 00:15:14;;;;;;;19.30;7.00;;;;;;;9.21;85.92;100360.16;5102850;28;20040;-67
2022/04/06 00:17:41;;;;;;;21.88;6.88;;;;;;;9.20;85.92;100350.56;5102256;27;20128;-67
2022/04/06 00:20:09;;;;;;;18.88;6.72;;;;;;;9.17;85.96;100347.09;5106657;28;20502;-67
2022/04/06 00:22:37;;;;;;;21.80;6.30;;;;;;;9.17;85.60;100346.25;5110440;28;20063;-67
2022/04/06 00:25:04;;;;;;;13.95;6.10;;;;;;;9.17;85.30;100341.84;5103684;28;20053;-67
2022/04/06 00:27:32;;;;;;;19.70;6.85;;;;;;;9.15;84.69;100335.81;5106426;28;20041;-66
2022/04/06 00:30:00;;;;;;;18.67;6.80;;;;;;;9.15;84.92;100346.31;5107673;28;20061;-66
2022/04/06 00:32:28;;;;;;;20.08;6.63;;;;;;;9.16;84.75;100348.00;5101199;28;20553;-68
2022/04/06 00:37:41;;;;;;;20.55;6.97;;;;;;;9.14;85.33;100343.72;5112979;28;20044;-66
2022/04/06 00:40:09;;;;;;;24.63;6.53;;;;;;;9.13;85.27;100342.88;5107040;28;20048;-66
2022/04/06 00:42:36;;;;;;;18.85;6.35;;;;;;;9.12;84.82;100343.78;5107617;28;20115;-65
2022/04/06 00:45:04;;;;;;;21.77;6.80;;;;;;;9.12;84.79;100343.78;5098991;28;20437;-66
2022/04/06 00:47:31;;;;;;;18.50;6.30;;;;;;;9.13;84.91;100340.25;5106573;28;20040;-67
2022/04/06 00:49:58;;;;;;;15.18;6.35;;;;;;;9.13;84.96;100339.38;5104139;28;20071;-67
2022/04/06 00:52:27;;;;;;;22.70;7.00;;;;;;;9.12;84.93;100327.13;5106623;28;20152;-65
2022/04/06 00:54:54;;;;;;;19.90;6.47;;;;;;;9.12;85.15;100332.38;5109540;28;20036;-65
2022/04/06 00:57:25;;;;;;;24.05;6.65;;;;;;;9.10;85.46;100327.19;5097530;28;20033;-67
2022/04/06 00:59:57;;;;;;;22.67;7.22;;;;;;;9.11;85.37;100328.03;5103693;28;20044;-66
2022/04/06 01:02:26;;;;;;;19.02;6.68;;;;;;;9.10;85.54;100331.59;5103962;28;20047;-65
2022/04/06 01:04:53;;;;;;;17.98;6.95;;;;;;;9.08;85.52;100323.75;5109778;28;20541;-66
2022/04/06 01:07:24;;;;;;;23.80;7.22;;;;;;;9.08;85.29;100323.75;5111906;28;20072;-65
2022/04/06 01:09:51;;;;;;;20.42;6.13;;;;;;;9.07;84.87;100311.50;5103883;28;20064;-65
2022/04/06 01:12:22;;;;;;;22.50;7.03;;;;;;;9.06;84.79;100314.19;5108960;28;20032;-66
2022/04/06 01:14:49;;;;;;;17.60;6.20;;;;;;;9.06;84.54;100317.66;5099391;28;20184;-65
2022/04/06 01:17:16;;;;;;;22.05;6.60;;;;;;;9.06;84.68;100314.19;5104909;28;20040;-66
2022/04/06 01:19:47;;;;;;;22.52;6.75;;;;;;;9.06;84.96;100312.41;5099982;28;20502;-66
2022/04/06 01:22:17;;;;;;;15.77;6.43;;;;;;;9.02;84.91;100311.66;5109640;28;20048;-66
2022/04/06 01:24:47;;;;;;;19.13;6.20;;;;;;;9.05;84.94;100317.72;5103179;28;20052;-67
2022/04/06 01:27:15;;;;;;;18.50;6.10;;;;;;;9.04;84.76;100310.75;5101632;28;20071;-67
2022/04/06 01:29:42;;;;;;;15.02;5.50;;;;;;;9.05;84.52;100310.72;5104027;28;20132;-68
2022/04/06 01:32:26;;;;;;;17.70;6.55;;;;;;;9.06;84.61;100309.78;5107536;28;20044;-68
2022/04/06 01:34:57;;;;;;;16.73;6.22;;;;;;;9.06;84.18;100309.78;5106118;28;20032;-67
2022/04/06 01:37:25;;;;;;;23.08;6.60;;;;;;;9.04;84.48;100306.34;5109705;28;20076;-67
2022/04/06 01:39:54;;;;;;;22.13;6.40;;;;;;;9.02;84.40;100302.91;5104989;28;20036;-67
2022/04/06 01:42:21;;;;;;;19.85;6.05;;;;;;;9.03;83.72;100296.75;5104325;28;20055;-68
2022/04/06 01:44:50;;;;;;;16.08;5.65;;;;;;;9.03;83.71;100299.38;5105490;28;20048;-67
2022/04/06 01:47:20;;;;;;;23.17;5.85;;;;;;;9.02;84.18;100297.66;5108384;28;20091;-67
2022/04/06 01:52:36;;;;;;;15.35;5.38;;;;;;;8.98;84.27;100302.16;5103424;28;20043;-66
2022/04/06 01:55:09;;;;;;;15.35;5.50;;;;;;;9.01;84.33;100298.56;5105505;28;20055;-67
2022/04/06 01:57:37;;;;;;;16.77;5.22;;;;;;;9.00;83.82;100297.69;5107915;28;20071;-65
2022/04/06 02:00:09;;;;;;;16.38;5.47;;;;;;;9.01;83.69;100301.19;5101032;28;20473;-66
2022/04/06 02:02:43;;;;;;;15.43;5.38;;;;;;;8.99;83.73;100300.38;5108605;28;20126;-66
2022/04/06 02:05:14;;;;;;;15.38;5.00;;;;;;;8.97;84.06;100291.69;5097741;28;20049;-66
2022/04/06 02:07:42;;;;;;;17.02;5.13;;;;;;;8.97;83.40;100294.31;5100120;28;20048;-66
2022/04/06 02:10:10;;;;;;;16.85;5.72;;;;;;;8.94;83.63;100292.63;5105064;28;20502;-66
2022/04/06 02:12:39;;;;;;;13.45;5.18;;;;;;;8.94;83.95;100295.28;5101606;28;20135;-66
2022/04/06 02:15:10;;;;;;;18.77;4.82;;;;;;;8.94;83.96;100292.63;5103871;28;20523;-66
2022/04/06 02:17:39;;;;;;;18.83;5.28;;;;;;;8.92;84.05;100286.56;5110312;28;20476;-66
2022/04/06 02:20:07;;;;;;;14.18;4.47;;;;;;;8.92;83.90;100286.56;5110458;28;20452;-66
2022/04/06 02:22:34;;;;;;;13.77;5.05;;;;;;;8.92;83.73;100286.56;5102202;28;20530;-66
2022/04/06 02:25:02;;;;;;;18.40;4.85;;;;;;;8.90;83.68;100285.78;5103082;28;20052;-67
2022/04/06 02:27:29;;;;;;;16.95;4.45;;;;;;;8.90;83.20;100277.91;5104561;28;20040;-68
2022/04/06 02:29:56;;;;;;;20.10;4.75;;;;;;;8.89;83.32;100273.53;5104064;28;20043;-68
2022/04/06 02:32:23;;;;;;;20.35;4.43;;;;;;;8.91;82.78;100271.69;5102455;28;20063;-66
2022/04/06 02:34:52;;;;;;;10.75;3.63;;;;;;;8.91;82.70;100269.06;5102766;28;20040;-67
2022/04/06 02:37:19;;;;;;;14.32;4.20;;;;;;;8.89;82.98;100273.53;5101198;28;20044;-68
2022/04/06 02:39:49;;;;;;;11.40;4.25;;;;;;;8.89;82.66;100273.53;5106771;28;20575;-69
2022/04/06 02:42:17;;;;;;;13.23;3.60;;;;;;;8.86;82.97;100268.38;5102086;28;20086;-69
2022/04/06 02:44:44;;;;;;;13.82;4.43;;;;;;;8.85;82.59;100266.66;5100479;28;20148;-68
2022/04/06 02:47:11;;;;;;;14.52;3.95;;;;;;;8.85;82.42;100264.03;5105485;28;20079;-68
2022/04/06 02:49:38;;;;;;;13.82;4.43;;;;;;;8.85;82.58;100264.88;5103166;28;20048;-68
2022/04/06 02:52:05;;;;;;;13.35;4.00;;;;;;;8.83;82.55;100258.81;5101681;28;20051;-67
2022/04/06 02:54:32;;;;;;;20.00;4.40;;;;;;;8.84;82.46;100262.31;5109388;28;20036;-69
2022/04/06 02:57:00;;;;;;;11.57;3.72;;;;;;;8.83;82.27;100257.94;5098609;28;20046;-67
2022/04/06 02:59:27;;;;;;;13.18;3.47;;;;;;;8.84;81.82;100257.91;5096407;28;20502;-67
2022/04/06 03:01:54;;;;;;;15.10;3.72;;;;;;;8.84;82.01;100260.56;5105983;28;20036;-66
2022/04/06 03:04:21;;;;;;;15.65;3.85;;;;;;;8.83;82.14;100256.19;5104293;28;20048;-67
2022/04/06 03:06:48;;;;;;;12.25;3.95;;;;;;;8.82;81.92;100251.84;5107892;28;20048;-66
2022/04/06 03:09:15;;;;;;;14.48;3.90;;;;;;;8.82;82.09;100250.97;5109040;28;20040;-66
2022/04/06 03:11:43;;;;;;;13.32;3.60;;;;;;;8.81;82.14;100255.38;5107563;28;20040;-67
2022/04/06 03:14:10;;;;;;;15.07;3.53;;;;;;;8.80;81.93;100250.19;5108192;28;20441;-67
2022/04/06 03:16:37;;;;;;;11.43;3.22;;;;;;;8.81;82.07;100244.00;5102515;28;20051;-67
2022/04/06 03:19:05;;;;;;;16.00;3.75;;;;;;;8.79;81.83;100241.44;5104656;28;20052;-67
2022/04/06 03:21:33;;;;;;;14.55;3.30;;;;;;;8.79;81.55;100243.22;5099218;28;20040;-67
2022/04/06 03:24:00;;;;;;;14.10;3.42;;;;;;;8.77;80.86;100237.13;5100667;28;20501;-67
2022/04/06 03:26:27;;;;;;;12.23;3.55;;;;;;;8.76;81.49;100235.41;5086270;28;20096;-70
2022/04/06 03:28:54;;;;;;;12.68;3.40;;;;;;;8.75;81.43;100233.69;5088116;28;20040;-67
2022/04/06 03:31:21;;;;;;;13.70;3.58;;;;;;;8.72;81.91;100237.28;5077943;28;20040;-67
2022/04/06 03:33:48;;;;;;;16.73;3.35;;;;;;;8.70;81.86;100239.94;5089461;28;20071;-66
2022/04/06 03:36:16;;;;;;;15.10;3.50;;;;;;;8.70;81.44;100225.97;5088013;28;20126;-66
2022/04/06 03:38:43;;;;;;;14.35;3.40;;;;;;;8.68;81.45;100230.41;5089244;28;20542;-67
2022/04/06 03:41:14;;;;;;;12.82;3.25;;;;;;;8.63;81.05;100222.66;5086521;28;20053;-67
2022/04/06 03:43:41;;;;;;;15.10;3.13;;;;;;;8.61;81.37;100213.97;5081516;28;20037;-67
2022/04/06 03:46:08;;;;;;;10.85;3.40;;;;;;;8.57;81.08;100214.09;5088841;28;20093;-69
2022/04/06 03:48:35;;;;;;;11.98;3.00;;;;;;;8.54;80.99;100212.44;5086532;28;20078;-68
2022/04/06 03:51:03;;;;;;;17.38;3.60;;;;;;;8.51;81.32;100208.16;5083664;28;20053;-68
2022/04/06 03:53:30;;;;;;;13.30;3.28;;;;;;;8.50;81.74;100216.94;5087860;28;20058;-67
2022/04/06 03:55:57;;;;;;;12.00;3.13;;;;;;;8.49;81.70;100211.75;5082039;28;20044;-68
2022/04/06 03:58:24;;;;;;;13.63;3.30;;;;;;;8.50;81.70;100218.69;5088571;28;20499;-67
2022/04/06 04:00:57;;;;;;;14.13;3.10;;;;;;;8.49;81.67;100214.38;5085374;28;20392;-66
2022/04/06 04:03:24;;;;;;;12.20;3.50;;;;;;;8.48;81.25;100216.13;5094440;28;20044;-67
2022/04/06 04:05:52;;;;;;;11.48;2.92;;;;;;;8.48;81.59;100216.13;5091423;28;20095;-68
2022/04/06 04:08:21;;;;;;;12.13;3.10;;;;;;;8.50;81.68;100213.44;5077784;28;20123;-68
2022/04/06 04:10:48;;;;;;;14.25;3.40;;;;;;;8.50;81.82;100224.81;5092393;28;20143;-68
2022/04/06 04:13:15;;;;;;;14.00;3.25;;;;;;;8.50;81.69;100211.69;5092728;28;20078;-67
2022/04/06 04:15:42;;;;;;;10.43;2.70;;;;;;;8.50;81.49;100216.94;5090983;28;20032;-67
2022/04/06 04:18:09;;;;;;;10.63;2.90;;;;;;;8.50;81.32;100216.06;5088767;28;20745;-69
2022/04/06 04:20:37;;;;;;;15.45;2.90;;;;;;;8.49;81.68;100206.50;5092287;28;20036;-68
2022/04/06 04:23:04;;;;;;;13.45;2.85;;;;;;;8.50;81.98;100213.44;5093157;28;20392;-66
2022/04/06 04:25:41;;;;;;;8.32;2.70;;;;;;;8.50;82.14;100211.69;5112243;28;20056;-65
2022/04/06 04:28:08;;;;;;;14.15;2.60;;;;;;;8.50;80.84;100206.44;5105898;28;20036;-66
2022/04/06 04:30:35;;;;;;;12.95;3.00;;;;;;;8.50;81.39;100211.69;5109246;28;20040;-66
2022/04/06 04:33:02;;;;;;;10.80;3.00;;;;;;;8.50;81.84;100206.44;5105956;28;20044;-65
2022/04/06 04:35:29;;;;;;;10.82;3.03;;;;;;;8.51;81.40;100209.91;5116912;27;20037;-67
2022/04/06 04:37:56;;;;;;;10.88;2.92;;;;;;;8.51;80.63;100205.53;5104956;27;20045;-65
2022/04/06 04:40:23;;;;;;;8.65;2.65;;;;;;;8.52;81.14;100201.13;5110017;28;20036;-66
2022/04/06 04:42:50;;;;;;;10.50;2.63;;;;;;;8.53;80.67;100202.84;5112637;28;20164;-66
2022/04/06 04:45:18;;;;;;;8.98;2.33;;;;;;;8.52;80.20;100203.75;5113053;28;20075;-66
2022/04/06 04:47:45;;;;;;;8.60;2.08;;;;;;;8.51;80.27;100202.91;5110719;28;20076;-66
2022/04/06 04:50:12;;;;;;;9.75;2.33;;;;;;;8.59;80.59;100201.78;5114408;28;20032;-67
2022/04/06 04:52:39;;;;;;;9.48;2.50;;;;;;;8.64;79.83;100197.25;5113080;28;20531;-66
2022/04/06 04:55:07;;;;;;;18.17;2.47;;;;;;;8.70;79.67;100200.53;5111474;28;20036;-67
2022/04/06 04:57:35;;;;;;;10.68;2.70;;;;;;;8.76;79.80;100199.47;5114200;28;20895;-66
2022/04/06 05:00:06;;;;;;;9.40;2.40;;;;;;;8.81;78.37;100207.19;5114130;28;20040;-67
2022/04/06 05:02:33;;;;;;;10.68;2.70;;;;;;;8.82;78.96;100194.03;5113000;27;20066;-66
2022/04/06 05:05:26;;;;;;;8.48;2.42;;;;;;;8.86;78.73;100194.78;5116151;27;20476;-68
2022/04/06 05:07:53;;;;;;;11.93;2.67;;;;;;;8.91;79.22;100192.00;5089921;28;20539;-68
2022/04/06 05:10:21;;;;;;;14.13;2.72;;;;;;;9.01;78.66;100186.34;5110469;28;20044;-67
2022/04/06 05:12:48;;;;;;;7.93;2.65;;;;;;;9.09;78.40;100185.25;5111067;28;20548;-67
2022/04/06 05:15:15;;;;;;;11.55;3.20;;;;;;;9.14;77.85;100180.69;5113353;28;20048;-67
2022/04/06 05:17:42;;;;;;;11.57;3.20;;;;;;;9.19;78.28;100185.78;5113549;28;20565;-68
2022/04/06 05:20:11;;;;;;;16.90;3.30;;;;;;;9.22;77.52;100172.53;5113634;28;20055;-67
2022/04/06 05:22:39;;;;;;;9.65;3.00;;;;;;;9.26;76.40;100177.63;5103550;28;20051;-66
2022/04/06 05:25:08;;;;;;;12.25;3.50;;;;;;;9.28;76.72;100174.94;5106980;28;20136;-68
2022/04/06 05:27:47;;;;;;;13.68;3.53;;;;;;;9.31;76.85;100169.56;5105700;28;20070;-67
2022/04/06 05:30:16;;;;;;;12.57;3.20;;;;;;;9.29;77.02;100168.75;5093868;28;20047;-66
2022/04/06 05:32:45;;;;;;;16.55;3.40;;;;;;;9.22;76.03;100167.25;5096735;28;20570;-66
2022/04/06 05:35:12;;;;;;;11.40;4.03;;;;;;;9.16;77.34;100165.72;5095523;28;20036;-67
2022/04/06 05:37:42;;;;;;;15.38;3.92;;;;;;;9.12;77.20;100175.47;5107425;28;20512;-66
2022/04/06 05:40:13;;;;;;;15.25;3.78;;;;;;;9.08;77.66;100170.38;5107701;28;20044;-67
2022/04/06 05:42:41;;;;;;;13.75;3.83;;;;;;;9.04;77.58;100168.75;5102242;28;20045;-68
2022/04/06 05:45:09;;;;;;;10.93;3.78;;;;;;;9.01;77.77;100167.94;5095369;28;20036;-66
2022/04/06 05:47:37;;;;;;;15.43;3.65;;;;;;;8.97;77.16;100165.47;5110070;28;20076;-67
2022/04/06 05:50:07;;;;;;;12.50;3.90;;;;;;;8.96;77.86;100167.25;5105030;28;20062;-66
2022/04/06 05:52:35;;;;;;;14.77;4.18;;;;;;;8.96;77.55;100167.25;5101865;28;20063;-66
2022/04/06 05:55:04;;;;;;;16.65;3.80;;;;;;;8.97;77.71;100163.72;5103275;28;20032;-67
2022/04/06 05:57:33;;;;;;;13.88;3.63;;;;;;;8.97;77.85;100157.59;5102962;28;20041;-66
2022/04/06 06:00:01;;;;;;;12.10;3.80;;;;;;;8.97;76.57;100160.22;5095272;28;20179;-66
2022/04/06 06:02:37;;;;;;;13.02;3.60;;;;;;;8.98;76.96;100162.81;5111208;28;20500;-66
2022/04/06 06:05:06;;;;;;;10.00;3.33;;;;;;;9.02;77.54;100168.81;5115097;28;20083;-67
2022/04/06 06:07:33;;;;;;;11.40;3.53;;;;;;;9.05;77.40;100167.84;5115709;28;20040;-68
2022/04/06 06:10:05;;;;;;;13.30;3.55;;;;;;;9.08;76.92;100163.34;5111174;28;20043;-68
2022/04/06 06:12:32;;;;;;;15.45;3.58;;;;;;;9.09;77.28;100167.69;5113970;28;20036;-68
2022/04/06 06:15:00;;;;;;;13.90;3.97;;;;;;;9.14;77.09;100167.53;5112758;27;20166;-67
2022/04/06 06:17:28;;;;;;;9.80;3.42;;;;;;;9.16;77.04;100166.56;5114135;28;20079;-68
2022/04/06 06:19:55;;;;;;;11.43;3.22;;;;;;;9.16;76.80;100168.34;5104098;28;20043;-67
2022/04/06 06:22:22;;;;;;;13.38;3.83;;;;;;;9.19;77.15;100162.09;5112325;28;20044;-68
2022/04/06 06:24:49;;;;;;;13.30;3.38;;;;;;;9.22;76.67;100154.13;5112662;28;20123;-67
2022/04/06 06:27:19;;;;;;;11.98;2.55;;;;;;;9.25;76.90;100154.84;5112700;28;20047;-68
2022/04/06 06:29:48;;;;;;;7.20;2.42;;;;;;;9.29;75.62;100156.47;5112620;28;20127;-69
2022/04/06 06:32:16;;;;;;;8.98;2.53;;;;;;;9.34;75.47;100153.69;5111549;28;20051;-68
2022/04/06 06:34:43;;;;;;;7.07;2.33;;;;;;;9.35;74.29;100151.91;5112611;28;20040;-68
2022/04/06 06:37:11;;;;;;;9.48;2.60;;;;;;;9.36;75.16;100159.72;5112630;28;20041;-69
2022/04/06 06:39:38;;;;;;;9.13;2.28;;;;;;;9.39;74.67;100164.03;5106526;28;20123;-69
2022/04/06 06:42:06;;;;;;;8.82;2.60;;;;;;;9.42;74.81;100159.53;5110589;28;20036;-67
2022/04/06 06:44:33;;;;;;;11.00;2.20;;;;;;;9.49;74.44;100154.91;5111752;28;20032;-68
2022/04/06 06:47:01;;;;;;;10.18;2.30;;;;;;;9.59;73.71;100158.03;5112486;28;20036;-68
2022/04/06 06:49:28;;;;;;;9.45;3.22;;;;;;;9.67;72.94;100142.81;5112500;28;20059;-68
2022/04/06 06:51:55;;;;;;;7.25;2.47;;;;;;;9.72;71.77;100137.38;5112135;28;20825;-68
2022/04/06 06:54:22;;;;;;;7.93;1.73;;;;;;;9.75;71.54;100158.31;5111376;28;20505;-67
2022/04/06 06:56:49;;;;;;;8.27;1.88;;;;;;;9.77;70.49;100146.81;5111213;28;20040;-68
2022/04/06 06:59:16;;;;;;;7.00;1.80;;;;;;;9.81;71.42;100141.44;5111089;28;20040;-69
2022/04/06 07:01:43;;;;;;;7.22;1.65;;;;;;;9.85;69.04;100148.31;5112214;28;20448;-68
2022/04/06 07:04:14;;;;;;;16.45;8.45;;;;;;;9.90;68.37;100141.06;5111726;28;20044;-69
2022/04/06 07:06:41;;;;;;;8.85;4.00;;;;;;;9.95;68.50;100139.13;5101100;28;20790;-69
2022/04/06 07:09:08;;;;;;;9.95;3.80;;;;;;;10.03;68.35;100134.41;5111460;28;20043;-68
2022/04/06 07:11:36;;;;;;;7.72;2.25;;;;;;;10.09;68.36;100141.22;5104351;28;20127;-68
2022/04/06 07:14:03;;;;;;;8.70;3.25;;;;;;;10.17;67.36;100148.84;5111881;28;20043;-68
2022/04/06 07:16:30;;;;;;;7.95;2.33;;;;;;;10.25;67.22;100138.84;5111742;28;20498;-69
2022/04/06 07:18:57;;;;;;;9.30;6.40;;;;;;;10.30;67.39;100136.03;5099271;28;20894;-69
2022/04/06 07:21:24;;;;;;;7.40;2.42;;;;;;;10.38;66.92;100132.16;5112339;28;20047;-68
2022/04/06 07:23:55;;;;;;;7.28;2.17;;;;;;;10.47;67.54;100130.94;5111986;28;20048;-68
2022/04/06 07:26:22;;;;;;;7.97;2.03;;;;;;;10.55;66.91;100128.00;5112684;27;20050;-68
2022/04/06 07:28:49;;;;;;;4.82;2.17;;;;;;;10.61;67.54;100135.63;5115341;28;20112;-67
2022/04/06 07:31:17;;;;;;;5.57;1.33;;;;;;;10.62;66.99;100121.53;5115808;28;20036;-67
2022/04/06 07:33:44;;;;;;;6.70;1.15;;;;;;;10.57;64.41;100127.00;5115715;28;20040;-68
2022/04/06 07:36:17;;;;;;;4.35;1.45;;;;;;;10.52;65.01;100113.19;5115244;28;20044;-67
2022/04/06 07:38:44;;;;;;;10.73;1.48;;;;;;;10.58;65.65;100117.34;5114783;28;20046;-67
2022/04/06 07:41:12;;;;;;;7.22;1.55;;;;;;;10.63;65.65;100109.25;5115759;28;20043;-67
2022/04/06 07:43:39;;;;;;;6.25;1.10;;;;;;;10.77;64.98;100106.00;5115507;28;20374;-68
2022/04/06 07:46:07;;;;;;;4.28;1.08;;;;;;;10.93;64.83;100108.84;5115948;28;20115;-68
2022/04/06 07:48:35;;;;;;;6.28;1.40;;;;;;;11.02;63.16;100106.66;5115453;28;20052;-68
2022/04/06 07:51:03;;;;;;;7.03;1.50;;;;;;;11.05;63.86;100113.56;5115386;28;20044;-67
2022/04/06 07:53:30;;;;;;;17.15;1.98;;;;;;;11.07;64.59;100098.53;5115105;28;20044;-68
2022/04/06 07:55:57;;;;;;;10.95;1.65;;;;;;;11.13;66.02;100100.91;5115138;28;20036;-68
2022/04/06 07:58:24;;;;;;;9.93;1.85;;;;;;;11.19;65.57;100097.16;5115023;28;20040;-69
2022/04/06 08:00:51;;;;;;;10.32;1.85;;;;;;;11.23;65.81;100096.06;5113279;28;20498;-68
2022/04/06 08:03:19;;;;;;;6.85;2.00;;;;;;;11.24;64.87;100099.59;5113674;28;20773;-68
2022/04/06 08:05:46;;;;;;;12.85;2.40;;;;;;;11.27;65.49;100092.38;5114929;28;20115;-69
2022/04/06 08:08:13;;;;;;;10.05;2.20;;;;;;;11.33;66.14;100092.09;5114448;28;20040;-68
2022/04/06 08:10:40;;;;;;;7.97;2.00;;;;;;;11.41;66.67;100090.88;5114059;28;20040;-69
2022/04/06 08:13:07;;;;;;;20.60;10.13;;;;;;;11.49;65.69;100086.97;5114377;28;20036;-68
2022/04/06 08:15:35;;;;;;;8.70;2.83;;;;;;;11.65;65.41;100080.97;5114263;28;20082;-68
2022/04/06 08:18:02;;;;;;;12.13;4.93;;;;;;;11.72;66.04;100089.44;5114962;28;20044;-68
2022/04/06 08:20:30;;;;;;;12.70;2.80;;;;;;;11.71;64.96;100085.97;5113618;28;20394;-69
2022/04/06 08:22:57;;;;;;;16.65;2.97;;;;;;;11.64;65.88;100088.03;5119552;27;20070;-68
2022/04/06 08:25:27;;;;;;;5.90;2.30;;;;;;;11.55;66.20;100090.25;5126086;27;20048;-67
2022/04/06 08:28:18;;;;;;;15.60;2.42;;;;;;;11.38;65.99;100085.75;5113647;28;20606;-69
2022/04/06 08:30:47;;;;;;;11.63;2.80;;;;;;;11.20;66.21;100088.28;5113945;28;20456;-68
2022/04/06 08:33:36;;;;;;;17.63;4.65;;;;;;;11.03;67.17;100096.97;5114836;28;20059;-69
2022/04/06 08:36:06;;;;;;;10.52;2.75;;;;;;;10.87;67.62;100099.41;5113103;28;20051;-67
2022/04/06 08:38:33;;;;;;;7.93;2.40;;;;;;;10.79;67.95;100088.31;5103675;27;20040;-68
2022/04/06 08:41:00;;;;;;;9.50;2.55;;;;;;;10.72;67.81;100082.47;5110600;28;20041;-67
2022/04/06 08:43:42;;;;;;;9.45;2.50;;;;;;;10.64;67.54;100097.75;5121284;27;20562;-68
2022/04/06 08:46:12;;;;;;;10.80;2.65;;;;;;;10.55;68.27;100094.59;5119098;27;20040;-68
2022/04/06 08:48:39;;;;;;;11.13;2.45;;;;;;;10.51;68.88;100093.00;5118179;27;20460;-69
2022/04/06 08:51:11;;;;;;;6.28;2.45;;;;;;;10.48;68.88;100090.50;5113822;28;20086;-68
2022/04/06 08:53:46;;;;;;;8.02;2.83;;;;;;;10.47;69.18;100090.56;5113776;28;20036;-69
2022/04/06 08:56:14;;;;;;;8.15;2.38;;;;;;;10.46;69.01;100084.44;5113408;28;20047;-69
2022/04/06 08:58:43;;;;;;;11.35;2.55;;;;;;;10.45;68.91;100093.25;5113415;27;20033;-68
2022/04/06 09:01:10;;;;;;;6.30;2.45;;;;;;;10.50;69.08;100093.94;5112622;28;20040;-69
2022/04/06 09:03:37;;;;;;;10.82;2.38;;;;;;;10.65;69.17;100084.53;5111384;28;20048;-70
2022/04/06 09:06:08;;;;;;;9.60;2.58;;;;;;;10.75;68.97;100090.25;5112027;28;20040;-69
2022/04/06 09:08:42;;;;;;;10.57;2.45;;;;;;;10.90;68.52;100083.44;5111419;28;20060;-69
2022/04/06 09:11:21;;;;;;;7.60;2.45;;;;;;;11.03;68.05;100082.00;5112014;28;20067;-70
2022/04/06 09:14:00;;;;;;;6.18;2.50;;;;;;;11.08;68.71;100079.16;5111295;28;20498;-70
2022/04/06 09:16:32;;;;;;;8.65;2.20;;;;;;;11.12;68.72;100091.28;5111734;28;20040;-70
2022/04/06 09:19:13;;;;;;;9.27;2.15;;;;;;;11.15;68.06;100079.72;5113697;28;20036;-69
2022/04/06 09:21:48;;;;;;;8.52;1.92;;;;;;;11.16;68.55;100086.72;5113332;28;20036;-70
2022/04/06 09:24:18;;;;;;;7.85;2.00;;;;;;;11.20;68.13;100075.09;5113705;28;20536;-69
2022/04/06 09:27:01;;;;;;;7.88;2.28;;;;;;;11.33;67.45;100083.34;5113274;28;20052;-69
2022/04/06 09:29:29;;;;;;;9.18;2.55;;;;;;;11.41;67.56;100082.97;5112971;28;20036;-69
2022/04/06 09:32:08;;;;;;;9.55;2.25;;;;;;;11.45;67.14;100074.81;5112836;28;20170;-69
2022/04/06 09:34:56;;;;;;;35.30;19.48;;;;;;;11.42;67.56;100087.31;5105556;28;20044;-70
2022/04/06 09:37:28;;;;;;;11.25;3.05;;;;;;;11.34;66.91;100080.59;5098178;28;20041;-69
2022/04/06 09:40:06;;;;;;;9.63;2.42;;;;;;;11.27;67.77;100084.47;5109705;28;20047;-70
2022/04/06 09:42:34;;;;;;;9.25;2.88;;;;;;;11.25;68.05;100073.13;5110707;28;20032;-69
2022/04/06 09:47:58;;;;;;;11.70;2.13;;;;;;;11.21;67.75;100086.50;5111738;28;20101;-69
2022/04/06 09:50:27;;;;;;;8.38;1.63;;;;;;;11.19;67.81;100081.31;5112180;28;20052;-69
2022/04/06 09:52:57;;;;;;;8.80;2.00;;;;;;;11.12;67.91;100086.00;5113459;28;20095;-69
2022/04/06 09:55:24;;;;;;;9.98;1.77;;;;;;;11.03;68.42;100079.34;5112332;28;20040;-69
2022/04/06 09:57:55;;;;;;;6.07;2.03;;;;;;;10.97;68.49;100077.00;5093462;28;20040;-69
2022/04/06 10:00:29;;;;;;;5.43;2.17;;;;;;;10.90;68.71;100087.88;5098708;28;20483;-69
2022/04/06 10:03:10;;;;;;;6.15;2.00;;;;;;;10.83;69.15;100082.88;5112792;28;20549;-69
2022/04/06 10:05:40;;;;;;;6.95;2.33;;;;;;;10.79;69.60;100072.50;5112495;28;20056;-70
2022/04/06 10:08:09;;;;;;;11.20;2.50;;;;;;;10.80;69.69;100083.00;5112928;28;20182;-69
2022/04/06 10:10:41;;;;;;;13.55;2.38;;;;;;;10.84;70.04;100066.09;5112200;28;20040;-69
2022/04/06 10:13:08;;;;;;;7.68;2.47;;;;;;;10.95;69.77;100065.66;5112314;28;20118;-68
2022/04/06 10:15:57;;;;;;;8.68;2.58;;;;;;;11.05;68.54;100065.25;5113204;28;20136;-69
2022/04/06 10:18:33;;;;;;;13.55;6.80;;;;;;;11.12;69.26;100057.00;5113340;28;20036;-69
2022/04/06 10:21:17;;;;;;;8.65;3.10;;;;;;;11.24;68.92;100058.22;5113270;28;20044;-70
2022/04/06 10:24:21;;;;;;;9.63;2.70;;;;;;;11.33;68.89;100055.16;5112578;28;20049;-69
2022/04/06 10:27:17;;;;;;;10.48;3.10;;;;;;;11.31;68.75;100061.44;5112337;28;20135;-68
2022/04/06 10:30:17;;;;;;;14.70;2.65;;;;;;;11.27;68.26;100055.44;5112847;28;20468;-68
2022/04/06 10:32:49;;;;;;;6.82;2.60;;;;;;;11.19;68.90;100060.22;5112127;28;20089;-68
2022/04/06 10:35:37;;;;;;;7.85;2.35;;;;;;;11.13;69.78;100045.53;5113024;28;20041;-69
2022/04/06 10:38:04;;;;;;;10.05;3.10;;;;;;;11.08;70.20;100049.28;5092741;28;20048;-69
2022/04/06 10:40:46;;;;;;;7.47;2.40;;;;;;;11.03;70.42;100047.69;5092694;28;20045;-69
2022/04/06 10:43:40;;;;;;;8.48;2.58;;;;;;;11.04;70.64;100048.53;5106551;28;20071;-69
2022/04/06 10:46:15;;;;;;;9.38;5.05;;;;;;;11.07;70.60;100050.22;5112808;28;20124;-69
2022/04/06 10:49:09;;;;;;;10.68;3.70;;;;;;;11.12;70.68;100046.44;5112190;28;20082;-69
2022/04/06 10:51:46;;;;;;;10.70;3.53;;;;;;;11.07;71.01;100050.22;5112709;28;20333;-69
2022/04/06 10:54:13;;;;;;;8.57;3.47;;;;;;;10.98;70.94;100056.75;5112526;28;20090;-69
2022/04/06 10:56:49;;;;;;;38.85;28.88;;;;;;;10.88;71.04;100054.50;5112812;28;20064;-68
2022/04/06 10:59:21;;;;;;;16.02;11.70;;;;;;;10.81;71.46;100054.84;5112224;28;20040;-70
2022/04/06 11:02:36;;;;;;;9.95;5.72;;;;;;;10.78;71.50;100036.53;5092821;28;20544;-69
2022/04/06 11:05:05;;;;;;;9.98;5.50;;;;;;;10.74;71.73;100046.34;5112240;28;20068;-68
2022/04/06 11:10:25;;;;;;;12.20;8.07;;;;;;;10.78;72.19;100042.66;5112633;28;20039;-69
2022/04/06 11:13:14;;;;;;;22.58;16.63;;;;;;;10.82;72.62;100038.09;5112351;28;20040;-70
2022/04/06 11:15:42;;;;;;;22.00;14.98;;;;;;;10.90;71.96;100040.41;5110933;28;20547;-69
2022/04/06 11:18:47;;;;;;;5.57;2.72;;;;;;;10.99;71.57;100035.56;5112493;28;20036;-69
2022/04/06 11:21:15;;;;;;;;;;;;;;;11.02;72.07;100032.78;5112917;28;20105;-69
2022/04/06 11:23:44;;;;;;;9.35;4.53;;;;;;;11.11;71.84;100039.44;5112059;28;19927;-69
2022/04/06 11:26:11;;;;;;;13.10;7.03;;;;;;;11.13;71.23;100020.91;5111864;28;20063;-69
2022/04/06 11:28:38;;;;;;;4.90;2.58;;;;;;;11.13;70.94;100024.41;5112096;28;20502;-69
2022/04/06 11:31:06;;;;;;;7.68;2.45;;;;;;;11.11;71.59;100028.91;5111789;28;20520;-68
2022/04/06 11:33:42;;;;;;;6.55;2.88;;;;;;;11.10;72.24;100027.19;5107708;28;20185;-69
2022/04/06 11:36:18;;;;;;;7.22;2.67;;;;;;;11.10;71.14;100010.47;5112496;28;20048;-70
2022/04/06 11:38:50;;;;;;;7.43;2.13;;;;;;;11.13;71.82;100018.25;5099291;28;20831;-70
2022/04/06 11:41:19;;;;;;;6.55;2.20;;;;;;;11.17;72.00;100017.22;5099354;28;20052;-69
2022/04/06 11:43:50;;;;;;;8.02;2.30;;;;;;;11.26;72.18;100008.88;5112230;28;20090;-69
2022/04/06 11:46:18;;;;;;;6.88;2.40;;;;;;;11.33;72.24;100005.00;5111920;28;20040;-69
2022/04/06 11:48:45;;;;;;;7.80;2.17;;;;;;;11.39;72.03;100003.03;5111492;28;20053;-69